sensor_id;sensor_type;location;lat;lon;timestamp;temperature;humidity
20568;DHT22;10442;49.932;11.592;2023-08-24T00:00:29;21.10;65.60
20568;DHT22;10442;49.932;11.592;2023-08-24T00:02:59;21.10;65.70
20568;DHT22;10442;49.932;11.592;2023-08-24T00:05:26;21.10;65.80
20568;DHT22;10442;49.932;11.592;2023-08-24T00:07:54;21.00;65.80
20568;DHT22;10442;49.932;11.592;2023-08-24T00:10:22;21.00;65.80
20568;DHT22;10442;49.932;11.592;2023-08-24T00:12:50;21.00;65.70
20568;DHT22;10442;49.932;11.592;2023-08-24T00:15:17;21.00;65.70
20568;DHT22;10442;49.932;11.592;2023-08-24T00:17:45;20.90;65.70
20568;DHT22;10442;49.932;11.592;2023-08-24T00:20:13;20.90;65.70
20568;DHT22;10442;49.932;11.592;2023-08-24T00:22:42;20.90;65.60
20568;DHT22;10442;49.932;11.592;2023-08-24T00:25:09;20.90;65.70
20568;DHT22;10442;49.932;11.592;2023-08-24T00:27:39;20.80;65.80
20568;DHT22;10442;49.932;11.592;2023-08-24T00:30:07;20.80;65.90
20568;DHT22;10442;49.932;11.592;2023-08-24T00:32:36;20.80;66.30
20568;DHT22;10442;49.932;11.592;2023-08-24T00:35:05;20.80;66.30
20568;DHT22;10442;49.932;11.592;2023-08-24T00:37:35;20.70;66.40
20568;DHT22;10442;49.932;11.592;2023-08-24T00:40:04;20.70;66.60
20568;DHT22;10442;49.932;11.592;2023-08-24T00:42:40;20.60;67.00
20568;DHT22;10442;49.932;11.592;2023-08-24T00:45:09;20.60;67.40
20568;DHT22;10442;49.932;11.592;2023-08-24T00:47:46;20.60;67.40
20568;DHT22;10442;49.932;11.592;2023-08-24T00:50:17;20.50;67.50
20568;DHT22;10442;49.932;11.592;2023-08-24T00:52:47;20.50;67.50
20568;DHT22;10442;49.932;11.592;2023-08-24T00:55:14;20.50;67.40
20568;DHT22;10442;49.932;11.592;2023-08-24T00:57:43;20.40;67.30
20568;DHT22;10442;49.932;11.592;2023-08-24T01:00:12;20.40;67.50
20568;DHT22;10442;49.932;11.592;2023-08-24T01:02:41;20.40;67.70
20568;DHT22;10442;49.932;11.592;2023-08-24T01:05:08;20.40;67.60
20568;DHT22;10442;49.932;11.592;2023-08-24T01:07:39;20.30;67.50
20568;DHT22;10442;49.932;11.592;2023-08-24T01:10:10;20.30;67.50
20568;DHT22;10442;49.932;11.592;2023-08-24T01:12:52;20.30;67.50
20568;DHT22;10442;49.932;11.592;2023-08-24T01:18:12;20.20;67.50
20568;DHT22;10442;49.932;11.592;2023-08-24T01:20:43;20.20;67.60
20568;DHT22;10442;49.932;11.592;2023-08-24T01:23:32;20.20;67.70
20568;DHT22;10442;49.932;11.592;2023-08-24T01:26:05;20.20;68.20
20568;DHT22;10442;49.932;11.592;2023-08-24T01:28:34;20.10;67.50
20568;DHT22;10442;49.932;11.592;2023-08-24T01:31:04;20.10;67.50
20568;DHT22;10442;49.932;11.592;2023-08-24T01:33:31;20.10;67.70
20568;DHT22;10442;49.932;11.592;2023-08-24T01:35:59;20.00;68.00
20568;DHT22;10442;49.932;11.592;2023-08-24T01:38:28;20.00;68.20
20568;DHT22;10442;49.932;11.592;2023-08-24T01:41:16;20.00;68.70
20568;DHT22;10442;49.932;11.592;2023-08-24T01:43:46;20.00;69.10
20568;DHT22;10442;49.932;11.592;2023-08-24T01:46:17;20.00;68.70
20568;DHT22;10442;49.932;11.592;2023-08-24T01:48:47;19.90;68.50
20568;DHT22;10442;49.932;11.592;2023-08-24T01:51:15;19.90;68.50
20568;DHT22;10442;49.932;11.592;2023-08-24T01:53:44;19.90;68.90
20568;DHT22;10442;49.932;11.592;2023-08-24T01:56:13;19.90;68.60
20568;DHT22;10442;49.932;11.592;2023-08-24T01:58:42;19.80;68.40
20568;DHT22;10442;49.932;11.592;2023-08-24T02:01:09;19.80;68.30
20568;DHT22;10442;49.932;11.592;2023-08-24T02:03:40;19.80;68.10
20568;DHT22;10442;49.932;11.592;2023-08-24T02:06:08;19.80;68.20
20568;DHT22;10442;49.932;11.592;2023-08-24T02:08:37;19.70;68.30
20568;DHT22;10442;49.932;11.592;2023-08-24T02:11:07;19.70;68.70
20568;DHT22;10442;49.932;11.592;2023-08-24T02:13:35;19.70;69.10
20568;DHT22;10442;49.932;11.592;2023-08-24T02:16:08;19.70;69.00
20568;DHT22;10442;49.932;11.592;2023-08-24T02:18:36;19.60;69.00
20568;DHT22;10442;49.932;11.592;2023-08-24T02:21:08;19.60;68.80
20568;DHT22;10442;49.932;11.592;2023-08-24T02:23:36;19.60;69.10
20568;DHT22;10442;49.932;11.592;2023-08-24T02:26:05;19.60;69.50
20568;DHT22;10442;49.932;11.592;2023-08-24T02:28:33;19.60;69.60
20568;DHT22;10442;49.932;11.592;2023-08-24T02:31:04;19.60;69.50
20568;DHT22;10442;49.932;11.592;2023-08-24T02:33:32;19.50;69.50
20568;DHT22;10442;49.932;11.592;2023-08-24T02:36:00;19.50;69.30
20568;DHT22;10442;49.932;11.592;2023-08-24T02:38:29;19.50;69.20
20568;DHT22;10442;49.932;11.592;2023-08-24T02:41:06;19.50;69.30
20568;DHT22;10442;49.932;11.592;2023-08-24T02:43:34;19.50;69.40
20568;DHT22;10442;49.932;11.592;2023-08-24T02:46:06;19.40;69.40
20568;DHT22;10442;49.932;11.592;2023-08-24T02:48:34;19.50;70.00
20568;DHT22;10442;49.932;11.592;2023-08-24T02:51:04;19.40;70.10
20568;DHT22;10442;49.932;11.592;2023-08-24T02:53:32;19.40;70.20
20568;DHT22;10442;49.932;11.592;2023-08-24T02:56:00;19.40;70.10
20568;DHT22;10442;49.932;11.592;2023-08-24T02:58:29;19.30;69.90
20568;DHT22;10442;49.932;11.592;2023-08-24T03:00:56;19.30;70.00
20568;DHT22;10442;49.932;11.592;2023-08-24T03:03:24;19.30;69.90
20568;DHT22;10442;49.932;11.592;2023-08-24T03:06:03;19.30;69.70
20568;DHT22;10442;49.932;11.592;2023-08-24T03:08:32;19.30;70.00
20568;DHT22;10442;49.932;11.592;2023-08-24T03:11:01;19.20;70.30
20568;DHT22;10442;49.932;11.592;2023-08-24T03:13:29;19.20;70.40
20568;DHT22;10442;49.932;11.592;2023-08-24T03:15:59;19.20;70.20
20568;DHT22;10442;49.932;11.592;2023-08-24T03:18:30;19.20;69.90
20568;DHT22;10442;49.932;11.592;2023-08-24T03:20:58;19.20;69.80
20568;DHT22;10442;49.932;11.592;2023-08-24T03:23:25;19.20;69.80
20568;DHT22;10442;49.932;11.592;2023-08-24T03:25:53;19.20;69.60
20568;DHT22;10442;49.932;11.592;2023-08-24T03:28:20;19.10;69.40
20568;DHT22;10442;49.932;11.592;2023-08-24T03:30:50;19.10;69.40
20568;DHT22;10442;49.932;11.592;2023-08-24T03:33:19;19.10;69.40
20568;DHT22;10442;49.932;11.592;2023-08-24T03:35:47;19.10;69.70
20568;DHT22;10442;49.932;11.592;2023-08-24T03:38:15;19.10;69.90
20568;DHT22;10442;49.932;11.592;2023-08-24T03:40:42;19.00;70.00
20568;DHT22;10442;49.932;11.592;2023-08-24T03:43:11;19.00;69.90
20568;DHT22;10442;49.932;11.592;2023-08-24T03:45:39;19.00;70.00
20568;DHT22;10442;49.932;11.592;2023-08-24T03:48:07;19.00;70.10
20568;DHT22;10442;49.932;11.592;2023-08-24T03:50:34;18.90;69.90
20568;DHT22;10442;49.932;11.592;2023-08-24T03:53:03;18.90;70.80
20568;DHT22;10442;49.932;11.592;2023-08-24T03:55:30;18.90;70.60
20568;DHT22;10442;49.932;11.592;2023-08-24T03:58:00;18.90;70.80
20568;DHT22;10442;49.932;11.592;2023-08-24T04:00:27;18.90;70.80
20568;DHT22;10442;49.932;11.592;2023-08-24T04:02:55;18.90;70.60
20568;DHT22;10442;49.932;11.592;2023-08-24T04:05:25;18.90;70.40
20568;DHT22;10442;49.932;11.592;2023-08-24T04:07:53;18.80;70.50
20568;DHT22;10442;49.932;11.592;2023-08-24T04:10:20;18.80;70.90
20568;DHT22;10442;49.932;11.592;2023-08-24T04:12:48;18.80;71.00
20568;DHT22;10442;49.932;11.592;2023-08-24T04:15:15;18.80;71.70
20568;DHT22;10442;49.932;11.592;2023-08-24T04:17:43;18.70;71.10
20568;DHT22;10442;49.932;11.592;2023-08-24T04:20:11;18.70;71.00
20568;DHT22;10442;49.932;11.592;2023-08-24T04:22:39;18.70;70.90
20568;DHT22;10442;49.932;11.592;2023-08-24T04:25:07;18.70;70.80
20568;DHT22;10442;49.932;11.592;2023-08-24T04:27:36;18.70;70.80
20568;DHT22;10442;49.932;11.592;2023-08-24T04:30:03;18.70;70.70
20568;DHT22;10442;49.932;11.592;2023-08-24T04:32:34;18.70;70.80
20568;DHT22;10442;49.932;11.592;2023-08-24T04:35:01;18.70;70.90
20568;DHT22;10442;49.932;11.592;2023-08-24T04:37:30;18.70;71.00
20568;DHT22;10442;49.932;11.592;2023-08-24T04:39:57;18.80;71.20
20568;DHT22;10442;49.932;11.592;2023-08-24T04:42:25;18.80;71.20
20568;DHT22;10442;49.932;11.592;2023-08-24T04:44:52;18.90;71.30
20568;DHT22;10442;49.932;11.592;2023-08-24T04:47:20;18.90;71.30
20568;DHT22;10442;49.932;11.592;2023-08-24T04:49:47;19.00;71.50
20568;DHT22;10442;49.932;11.592;2023-08-24T04:52:15;19.00;71.60
20568;DHT22;10442;49.932;11.592;2023-08-24T04:54:43;19.10;71.60
20568;DHT22;10442;49.932;11.592;2023-08-24T04:57:10;19.20;71.70
20568;DHT22;10442;49.932;11.592;2023-08-24T04:59:38;19.30;71.80
20568;DHT22;10442;49.932;11.592;2023-08-24T05:02:05;19.40;71.80
20568;DHT22;10442;49.932;11.592;2023-08-24T05:04:32;19.50;71.80
20568;DHT22;10442;49.932;11.592;2023-08-24T05:07:00;19.70;71.70
20568;DHT22;10442;49.932;11.592;2023-08-24T05:09:27;19.90;71.40
20568;DHT22;10442;49.932;11.592;2023-08-24T05:11:55;20.20;70.80
20568;DHT22;10442;49.932;11.592;2023-08-24T05:14:22;20.40;70.50
20568;DHT22;10442;49.932;11.592;2023-08-24T05:16:49;20.70;70.30
20568;DHT22;10442;49.932;11.592;2023-08-24T05:19:17;21.00;69.30
20568;DHT22;10442;49.932;11.592;2023-08-24T05:21:44;21.30;69.90
20568;DHT22;10442;49.932;11.592;2023-08-24T05:24:11;21.70;68.90
20568;DHT22;10442;49.932;11.592;2023-08-24T05:26:39;22.10;68.00
20568;DHT22;10442;49.932;11.592;2023-08-24T05:29:06;22.60;67.50
20568;DHT22;10442;49.932;11.592;2023-08-24T05:31:34;23.10;66.40
20568;DHT22;10442;49.932;11.592;2023-08-24T05:34:01;23.50;65.00
20568;DHT22;10442;49.932;11.592;2023-08-24T05:36:28;24.00;63.90
20568;DHT22;10442;49.932;11.592;2023-08-24T05:38:56;24.50;62.80
20568;DHT22;10442;49.932;11.592;2023-08-24T05:41:32;24.90;61.40
20568;DHT22;10442;49.932;11.592;2023-08-24T05:44:00;25.30;60.10
20568;DHT22;10442;49.932;11.592;2023-08-24T05:46:28;25.70;59.60
20568;DHT22;10442;49.932;11.592;2023-08-24T05:48:58;26.20;59.00
20568;DHT22;10442;49.932;11.592;2023-08-24T05:51:26;26.60;58.00
20568;DHT22;10442;49.932;11.592;2023-08-24T05:53:55;27.00;57.60
20568;DHT22;10442;49.932;11.592;2023-08-24T05:56:23;27.40;56.60
20568;DHT22;10442;49.932;11.592;2023-08-24T05:58:50;27.80;55.70
20568;DHT22;10442;49.932;11.592;2023-08-24T06:01:19;28.10;54.90
20568;DHT22;10442;49.932;11.592;2023-08-24T06:03:46;28.50;54.30
20568;DHT22;10442;49.932;11.592;2023-08-24T06:06:14;28.80;54.50
20568;DHT22;10442;49.932;11.592;2023-08-24T06:08:42;29.10;52.70
20568;DHT22;10442;49.932;11.592;2023-08-24T06:11:09;29.40;52.40
20568;DHT22;10442;49.932;11.592;2023-08-24T06:13:37;29.70;51.60
20568;DHT22;10442;49.932;11.592;2023-08-24T06:16:04;29.90;51.40
20568;DHT22;10442;49.932;11.592;2023-08-24T06:18:32;30.20;50.40
20568;DHT22;10442;49.932;11.592;2023-08-24T06:21:00;30.40;50.10
20568;DHT22;10442;49.932;11.592;2023-08-24T06:23:27;30.60;49.80
20568;DHT22;10442;49.932;11.592;2023-08-24T06:25:55;30.90;49.50
20568;DHT22;10442;49.932;11.592;2023-08-24T06:28:22;31.10;49.00
20568;DHT22;10442;49.932;11.592;2023-08-24T06:30:50;31.40;48.90
20568;DHT22;10442;49.932;11.592;2023-08-24T06:33:18;31.70;48.00
20568;DHT22;10442;49.932;11.592;2023-08-24T06:35:46;32.00;47.10
20568;DHT22;10442;49.932;11.592;2023-08-24T06:38:16;32.40;46.70
20568;DHT22;10442;49.932;11.592;2023-08-24T06:40:43;32.60;46.30
20568;DHT22;10442;49.932;11.592;2023-08-24T06:43:11;32.90;45.50
20568;DHT22;10442;49.932;11.592;2023-08-24T06:45:40;33.00;44.60
20568;DHT22;10442;49.932;11.592;2023-08-24T06:48:08;33.00;44.00
20568;DHT22;10442;49.932;11.592;2023-08-24T06:50:36;32.80;44.00
20568;DHT22;10442;49.932;11.592;2023-08-24T06:53:04;32.50;44.40
20568;DHT22;10442;49.932;11.592;2023-08-24T06:55:32;32.30;44.60
20568;DHT22;10442;49.932;11.592;2023-08-24T06:57:59;32.10;45.00
20568;DHT22;10442;49.932;11.592;2023-08-24T07:00:27;31.90;45.30
20568;DHT22;10442;49.932;11.592;2023-08-24T07:02:54;31.70;45.40
20568;DHT22;10442;49.932;11.592;2023-08-24T07:05:23;31.60;45.50
20568;DHT22;10442;49.932;11.592;2023-08-24T07:07:51;31.40;45.80
20568;DHT22;10442;49.932;11.592;2023-08-24T07:10:20;31.20;45.80
20568;DHT22;10442;49.932;11.592;2023-08-24T07:12:47;30.90;46.20
20568;DHT22;10442;49.932;11.592;2023-08-24T07:15:15;30.60;46.50
20568;DHT22;10442;49.932;11.592;2023-08-24T07:17:42;30.40;47.40
20568;DHT22;10442;49.932;11.592;2023-08-24T07:20:10;30.20;47.90
20568;DHT22;10442;49.932;11.592;2023-08-24T07:22:41;30.30;48.30
20568;DHT22;10442;49.932;11.592;2023-08-24T07:25:08;30.40;47.60
20568;DHT22;10442;49.932;11.592;2023-08-24T07:27:38;30.60;47.80
20568;DHT22;10442;49.932;11.592;2023-08-24T07:30:07;30.80;48.30
20568;DHT22;10442;49.932;11.592;2023-08-24T07:32:55;31.20;48.20
20568;DHT22;10442;49.932;11.592;2023-08-24T07:35:23;31.80;48.00
20568;DHT22;10442;49.932;11.592;2023-08-24T07:37:54;32.30;46.90
20568;DHT22;10442;49.932;11.592;2023-08-24T07:40:21;33.00;46.00
20568;DHT22;10442;49.932;11.592;2023-08-24T07:42:50;33.50;45.00
20568;DHT22;10442;49.932;11.592;2023-08-24T07:45:20;33.90;44.20
20568;DHT22;10442;49.932;11.592;2023-08-24T07:47:48;34.20;43.10
20568;DHT22;10442;49.932;11.592;2023-08-24T07:50:17;34.10;42.60
20568;DHT22;10442;49.932;11.592;2023-08-24T07:52:44;34.10;43.00
20568;DHT22;10442;49.932;11.592;2023-08-24T07:55:12;34.00;42.80
20568;DHT22;10442;49.932;11.592;2023-08-24T07:57:39;33.90;43.10
20568;DHT22;10442;49.932;11.592;2023-08-24T08:00:07;33.80;43.00
20568;DHT22;10442;49.932;11.592;2023-08-24T08:02:40;33.80;42.70
20568;DHT22;10442;49.932;11.592;2023-08-24T08:05:08;33.80;42.70
20568;DHT22;10442;49.932;11.592;2023-08-24T08:07:38;33.90;42.80
20568;DHT22;10442;49.932;11.592;2023-08-24T08:10:06;34.10;43.60
20568;DHT22;10442;49.932;11.592;2023-08-24T08:12:34;34.40;42.80
20568;DHT22;10442;49.932;11.592;2023-08-24T08:15:02;34.80;42.20
20568;DHT22;10442;49.932;11.592;2023-08-24T08:17:30;35.20;42.00
20568;DHT22;10442;49.932;11.592;2023-08-24T08:19:58;35.60;40.90
20568;DHT22;10442;49.932;11.592;2023-08-24T08:22:26;35.90;40.20
20568;DHT22;10442;49.932;11.592;2023-08-24T08:24:53;36.30;39.30
20568;DHT22;10442;49.932;11.592;2023-08-24T08:27:22;36.60;39.30
20568;DHT22;10442;49.932;11.592;2023-08-24T08:29:50;36.90;38.50
20568;DHT22;10442;49.932;11.592;2023-08-24T08:32:18;37.20;38.20
20568;DHT22;10442;49.932;11.592;2023-08-24T08:34:45;37.40;37.40
20568;DHT22;10442;49.932;11.592;2023-08-24T08:37:13;37.70;37.80
20568;DHT22;10442;49.932;11.592;2023-08-24T08:39:40;37.90;36.60
20568;DHT22;10442;49.932;11.592;2023-08-24T08:42:13;38.20;35.90
20568;DHT22;10442;49.932;11.592;2023-08-24T08:44:43;38.50;35.90
20568;DHT22;10442;49.932;11.592;2023-08-24T08:47:11;38.70;35.90
20568;DHT22;10442;49.932;11.592;2023-08-24T08:49:39;38.90;35.00
20568;DHT22;10442;49.932;11.592;2023-08-24T08:52:07;39.10;35.20
20568;DHT22;10442;49.932;11.592;2023-08-24T08:54:34;39.20;35.10
20568;DHT22;10442;49.932;11.592;2023-08-24T08:57:02;39.50;33.90
20568;DHT22;10442;49.932;11.592;2023-08-24T08:59:30;39.60;33.70
20568;DHT22;10442;49.932;11.592;2023-08-24T09:02:01;39.60;33.30
20568;DHT22;10442;49.932;11.592;2023-08-24T09:04:31;39.60;33.60
20568;DHT22;10442;49.932;11.592;2023-08-24T09:06:59;39.60;33.10
20568;DHT22;10442;49.932;11.592;2023-08-24T09:09:31;39.50;32.80
20568;DHT22;10442;49.932;11.592;2023-08-24T09:12:00;39.60;33.30
20568;DHT22;10442;49.932;11.592;2023-08-24T09:14:28;39.50;33.10
20568;DHT22;10442;49.932;11.592;2023-08-24T09:16:55;39.50;32.60
20568;DHT22;10442;49.932;11.592;2023-08-24T09:19:32;39.60;32.70
20568;DHT22;10442;49.932;11.592;2023-08-24T09:22:01;39.70;32.50
20568;DHT22;10442;49.932;11.592;2023-08-24T09:24:30;39.70;32.80
20568;DHT22;10442;49.932;11.592;2023-08-24T09:26:59;39.60;32.30
20568;DHT22;10442;49.932;11.592;2023-08-24T09:29:27;39.70;32.10
20568;DHT22;10442;49.932;11.592;2023-08-24T09:31:55;39.60;32.40
20568;DHT22;10442;49.932;11.592;2023-08-24T09:34:24;39.50;32.50
20568;DHT22;10442;49.932;11.592;2023-08-24T09:36:55;39.40;32.80
20568;DHT22;10442;49.932;11.592;2023-08-24T09:39:22;39.20;32.20
20568;DHT22;10442;49.932;11.592;2023-08-24T09:41:50;39.00;32.20
20568;DHT22;10442;49.932;11.592;2023-08-24T09:44:18;38.70;32.40
20568;DHT22;10442;49.932;11.592;2023-08-24T09:46:46;38.40;32.10
20568;DHT22;10442;49.932;11.592;2023-08-24T09:49:13;38.00;32.70
20568;DHT22;10442;49.932;11.592;2023-08-24T09:51:41;37.50;32.70
20568;DHT22;10442;49.932;11.592;2023-08-24T09:54:12;37.10;32.90
20568;DHT22;10442;49.932;11.592;2023-08-24T09:56:41;36.70;33.20
20568;DHT22;10442;49.932;11.592;2023-08-24T09:59:17;36.30;33.60
20568;DHT22;10442;49.932;11.592;2023-08-24T10:01:48;35.90;33.20
20568;DHT22;10442;49.932;11.592;2023-08-24T10:04:23;35.60;33.80
20568;DHT22;10442;49.932;11.592;2023-08-24T10:06:57;35.50;34.50
20568;DHT22;10442;49.932;11.592;2023-08-24T10:09:50;35.30;34.40
20568;DHT22;10442;49.932;11.592;2023-08-24T10:12:20;35.20;34.60
20568;DHT22;10442;49.932;11.592;2023-08-24T10:15:01;35.10;34.50
20568;DHT22;10442;49.932;11.592;2023-08-24T10:17:36;35.10;34.90
20568;DHT22;10442;49.932;11.592;2023-08-24T10:20:05;34.90;34.90
20568;DHT22;10442;49.932;11.592;2023-08-24T10:22:37;34.90;35.00
20568;DHT22;10442;49.932;11.592;2023-08-24T10:25:07;34.80;35.30
20568;DHT22;10442;49.932;11.592;2023-08-24T10:27:35;34.70;34.40
20568;DHT22;10442;49.932;11.592;2023-08-24T10:30:03;34.60;34.50
20568;DHT22;10442;49.932;11.592;2023-08-24T10:32:31;34.40;34.80
20568;DHT22;10442;49.932;11.592;2023-08-24T10:34:59;34.40;35.00
20568;DHT22;10442;49.932;11.592;2023-08-24T10:37:27;34.30;35.40
20568;DHT22;10442;49.932;11.592;2023-08-24T10:39:55;34.30;34.50
20568;DHT22;10442;49.932;11.592;2023-08-24T10:42:22;34.20;34.60
20568;DHT22;10442;49.932;11.592;2023-08-24T10:44:50;34.20;35.00
20568;DHT22;10442;49.932;11.592;2023-08-24T10:52:35;34.30;36.60
20568;DHT22;10442;49.932;11.592;2023-08-24T10:55:05;34.40;36.70
20568;DHT22;10442;49.932;11.592;2023-08-24T10:57:59;34.40;35.40
20568;DHT22;10442;49.932;11.592;2023-08-24T11:00:29;34.60;34.70
20568;DHT22;10442;49.932;11.592;2023-08-24T11:02:57;34.60;34.40
20568;DHT22;10442;49.932;11.592;2023-08-24T11:05:29;34.60;34.90
20568;DHT22;10442;49.932;11.592;2023-08-24T11:08:04;34.60;35.40
20568;DHT22;10442;49.932;11.592;2023-08-24T11:13:11;34.70;34.40
20568;DHT22;10442;49.932;11.592;2023-08-24T11:15:49;34.70;34.60
20568;DHT22;10442;49.932;11.592;2023-08-24T11:18:27;34.70;33.90
20568;DHT22;10442;49.932;11.592;2023-08-24T11:21:04;34.70;35.00
20568;DHT22;10442;49.932;11.592;2023-08-24T11:23:32;34.60;33.40
20568;DHT22;10442;49.932;11.592;2023-08-24T11:26:01;34.50;34.70
20568;DHT22;10442;49.932;11.592;2023-08-24T11:28:30;34.40;34.90
20568;DHT22;10442;49.932;11.592;2023-08-24T11:30:58;34.20;35.10
20568;DHT22;10442;49.932;11.592;2023-08-24T11:33:31;34.10;36.40
20568;DHT22;10442;49.932;11.592;2023-08-24T11:36:00;34.00;35.80
20568;DHT22;10442;49.932;11.592;2023-08-24T11:38:41;34.00;35.50
20568;DHT22;10442;49.932;11.592;2023-08-24T11:41:11;33.90;36.20
20568;DHT22;10442;49.932;11.592;2023-08-24T11:43:39;33.90;36.70
20568;DHT22;10442;49.932;11.592;2023-08-24T11:46:07;33.70;36.10
20568;DHT22;10442;49.932;11.592;2023-08-24T11:48:35;33.70;36.00
20568;DHT22;10442;49.932;11.592;2023-08-24T11:51:08;33.60;35.70
20568;DHT22;10442;49.932;11.592;2023-08-24T11:53:47;33.50;36.60
20568;DHT22;10442;49.932;11.592;2023-08-24T11:56:15;33.50;35.40
20568;DHT22;10442;49.932;11.592;2023-08-24T11:58:49;33.50;36.20
20568;DHT22;10442;49.932;11.592;2023-08-24T12:01:20;33.50;37.10
20568;DHT22;10442;49.932;11.592;2023-08-24T12:03:48;33.50;37.20
20568;DHT22;10442;49.932;11.592;2023-08-24T12:06:16;33.50;37.40
20568;DHT22;10442;49.932;11.592;2023-08-24T12:08:47;33.50;37.60
20568;DHT22;10442;49.932;11.592;2023-08-24T12:11:18;33.60;37.00
20568;DHT22;10442;49.932;11.592;2023-08-24T12:13:49;33.50;36.70
20568;DHT22;10442;49.932;11.592;2023-08-24T12:16:17;33.50;35.00
20568;DHT22;10442;49.932;11.592;2023-08-24T12:18:55;33.50;35.30
20568;DHT22;10442;49.932;11.592;2023-08-24T12:21:23;33.60;35.50
20568;DHT22;10442;49.932;11.592;2023-08-24T12:24:02;33.50;34.90
20568;DHT22;10442;49.932;11.592;2023-08-24T12:26:36;33.50;34.40
20568;DHT22;10442;49.932;11.592;2023-08-24T12:29:08;33.50;34.70
20568;DHT22;10442;49.932;11.592;2023-08-24T12:31:36;33.50;34.30
20568;DHT22;10442;49.932;11.592;2023-08-24T12:34:06;33.50;34.50
20568;DHT22;10442;49.932;11.592;2023-08-24T12:36:37;33.50;35.10
20568;DHT22;10442;49.932;11.592;2023-08-24T12:39:05;33.50;34.80
20568;DHT22;10442;49.932;11.592;2023-08-24T12:41:35;33.50;34.70
20568;DHT22;10442;49.932;11.592;2023-08-24T12:44:02;33.50;35.00
20568;DHT22;10442;49.932;11.592;2023-08-24T12:46:34;33.60;34.60
20568;DHT22;10442;49.932;11.592;2023-08-24T12:49:02;33.60;34.30
20568;DHT22;10442;49.932;11.592;2023-08-24T12:51:30;33.70;34.60
20568;DHT22;10442;49.932;11.592;2023-08-24T12:53:58;33.70;34.00
20568;DHT22;10442;49.932;11.592;2023-08-24T12:56:25;33.80;34.70
20568;DHT22;10442;49.932;11.592;2023-08-24T12:58:53;33.80;34.20
20568;DHT22;10442;49.932;11.592;2023-08-24T13:01:21;33.80;33.40
20568;DHT22;10442;49.932;11.592;2023-08-24T13:03:49;33.80;33.40
20568;DHT22;10442;49.932;11.592;2023-08-24T13:06:16;33.80;34.40
20568;DHT22;10442;49.932;11.592;2023-08-24T13:08:47;33.90;35.10
20568;DHT22;10442;49.932;11.592;2023-08-24T13:11:14;33.90;34.00
20568;DHT22;10442;49.932;11.592;2023-08-24T13:13:42;33.90;34.00
20568;DHT22;10442;49.932;11.592;2023-08-24T13:16:10;33.80;34.60
20568;DHT22;10442;49.932;11.592;2023-08-24T13:18:37;33.90;34.20
20568;DHT22;10442;49.932;11.592;2023-08-24T13:21:05;33.90;34.10
20568;DHT22;10442;49.932;11.592;2023-08-24T13:23:32;33.90;33.70
20568;DHT22;10442;49.932;11.592;2023-08-24T13:26:01;34.00;32.90
20568;DHT22;10442;49.932;11.592;2023-08-24T13:28:28;33.90;32.40
20568;DHT22;10442;49.932;11.592;2023-08-24T13:30:57;33.90;32.80
20568;DHT22;10442;49.932;11.592;2023-08-24T13:33:24;33.90;32.70
20568;DHT22;10442;49.932;11.592;2023-08-24T13:35:52;33.80;32.60
20568;DHT22;10442;49.932;11.592;2023-08-24T13:38:19;33.80;32.70
20568;DHT22;10442;49.932;11.592;2023-08-24T13:40:47;33.80;33.20
20568;DHT22;10442;49.932;11.592;2023-08-24T13:43:16;33.70;32.30
20568;DHT22;10442;49.932;11.592;2023-08-24T13:45:44;33.70;32.50
20568;DHT22;10442;49.932;11.592;2023-08-24T13:48:11;33.70;32.90
20568;DHT22;10442;49.932;11.592;2023-08-24T13:50:40;33.70;32.80
20568;DHT22;10442;49.932;11.592;2023-08-24T13:53:08;33.80;33.00
20568;DHT22;10442;49.932;11.592;2023-08-24T13:55:35;33.90;33.30
20568;DHT22;10442;49.932;11.592;2023-08-24T13:58:04;34.00;32.60
20568;DHT22;10442;49.932;11.592;2023-08-24T14:00:32;34.00;31.20
20568;DHT22;10442;49.932;11.592;2023-08-24T14:03:00;34.00;31.20
20568;DHT22;10442;49.932;11.592;2023-08-24T14:05:27;34.00;32.00
20568;DHT22;10442;49.932;11.592;2023-08-24T14:07:55;34.00;31.40
20568;DHT22;10442;49.932;11.592;2023-08-24T14:10:22;34.00;31.30
20568;DHT22;10442;49.932;11.592;2023-08-24T14:12:50;34.00;31.00
20568;DHT22;10442;49.932;11.592;2023-08-24T14:15:18;33.90;31.00
20568;DHT22;10442;49.932;11.592;2023-08-24T14:17:45;33.80;30.90
20568;DHT22;10442;49.932;11.592;2023-08-24T14:20:13;33.80;31.60
20568;DHT22;10442;49.932;11.592;2023-08-24T14:22:42;33.70;32.10
20568;DHT22;10442;49.932;11.592;2023-08-24T14:25:12;33.60;32.50
20568;DHT22;10442;49.932;11.592;2023-08-24T14:27:40;33.60;33.40
20568;DHT22;10442;49.932;11.592;2023-08-24T14:30:14;33.70;33.90
20568;DHT22;10442;49.932;11.592;2023-08-24T14:32:41;33.70;33.80
20568;DHT22;10442;49.932;11.592;2023-08-24T14:35:09;33.70;32.90
20568;DHT22;10442;49.932;11.592;2023-08-24T14:37:36;33.70;32.70
20568;DHT22;10442;49.932;11.592;2023-08-24T14:40:06;33.70;32.90
20568;DHT22;10442;49.932;11.592;2023-08-24T14:42:34;33.80;32.60
20568;DHT22;10442;49.932;11.592;2023-08-24T14:45:02;33.70;33.10
20568;DHT22;10442;49.932;11.592;2023-08-24T14:47:29;33.70;33.60
20568;DHT22;10442;49.932;11.592;2023-08-24T14:49:57;33.70;33.20
20568;DHT22;10442;49.932;11.592;2023-08-24T14:52:24;33.70;32.90
20568;DHT22;10442;49.932;11.592;2023-08-24T14:54:52;33.60;32.80
20568;DHT22;10442;49.932;11.592;2023-08-24T14:57:19;33.60;32.30
20568;DHT22;10442;49.932;11.592;2023-08-24T14:59:46;33.50;31.60
20568;DHT22;10442;49.932;11.592;2023-08-24T15:02:14;33.40;32.70
20568;DHT22;10442;49.932;11.592;2023-08-24T15:04:41;33.40;33.10
20568;DHT22;10442;49.932;11.592;2023-08-24T15:07:09;33.40;33.30
20568;DHT22;10442;49.932;11.592;2023-08-24T15:09:36;33.40;33.10
20568;DHT22;10442;49.932;11.592;2023-08-24T15:12:04;33.30;33.60
20568;DHT22;10442;49.932;11.592;2023-08-24T15:14:32;33.30;33.90
20568;DHT22;10442;49.932;11.592;2023-08-24T15:16:59;33.20;33.90
20568;DHT22;10442;49.932;11.592;2023-08-24T15:19:27;33.20;33.50
20568;DHT22;10442;49.932;11.592;2023-08-24T15:21:54;33.10;32.60
20568;DHT22;10442;49.932;11.592;2023-08-24T15:24:22;33.10;32.60
20568;DHT22;10442;49.932;11.592;2023-08-24T15:26:49;33.10;32.30
20568;DHT22;10442;49.932;11.592;2023-08-24T15:29:17;33.00;32.50
20568;DHT22;10442;49.932;11.592;2023-08-24T15:31:45;32.90;32.40
20568;DHT22;10442;49.932;11.592;2023-08-24T15:34:13;32.90;32.90
20568;DHT22;10442;49.932;11.592;2023-08-24T15:36:40;32.90;32.80